Alpena, Arkansas
Current Conditions -  °F | °C
As of 5:53 PM on Wednesday 26 Nov 2014 (Local Time) from KHRO Reporting Station
Scattered Clouds Scattered Clouds  
Wind Chill: 37°   Ceiling: Unl
Heat Index: 43°   Visibility: 10mi
Dew Point: 26°   Wind: 10mph
Humidity: 51%   Direction: 300°WNW
Pressure: 30.12"   Gusts: 22mph
Location:  36.29°N, 93.29°W
Report Text: KHRO 262353Z AUTO 30009G19KT 10SM SCT050 06/M03 A3012 RMK AO2 SLP207 T00611033 10106 20061 51024
Loading
Personal Weather Stations






























Interactive Weather Map New forecast layout! Learn more

10-Day Weather Forecast

Advertisements
Track Severe Weather on mobile